createdAt,value
2017-11-28T00:01:28.033Z,85.52
2017-11-28T00:03:54.486Z,85.68
2017-11-28T00:06:20.926Z,85.63
2017-11-28T00:08:48.156Z,85.68
2017-11-28T00:11:14.547Z,85.79
2017-11-28T00:13:41.025Z,85.81
2017-11-28T00:16:07.428Z,85.67
2017-11-28T00:18:33.894Z,85.41
2017-11-28T00:21:00.285Z,85.54
2017-11-28T00:23:26.753Z,85.37
2017-11-28T00:25:53.838Z,85.26
2017-11-28T00:28:20.305Z,85.41
2017-11-28T00:30:46.785Z,85.22
2017-11-28T00:33:13.240Z,85.47
2017-11-28T00:35:39.756Z,85.50
2017-11-28T00:38:06.190Z,85.36
2017-11-28T00:40:32.624Z,85.39
2017-11-28T00:42:59.778Z,85.46
2017-11-28T00:45:26.162Z,85.65
2017-11-28T00:47:52.666Z,85.71
2017-11-28T00:50:19.189Z,85.79
2017-11-28T00:52:45.658Z,85.81
2017-11-28T00:55:12.154Z,85.62
2017-11-28T00:57:38.588Z,85.95
2017-11-28T01:00:05.847Z,86.35
2017-11-28T01:02:32.276Z,86.77
2017-11-28T01:04:58.823Z,86.80
2017-11-28T01:07:25.248Z,86.68
2017-11-28T01:09:51.647Z,87.13
2017-11-28T01:12:18.117Z,86.94
2017-11-28T01:14:44.551Z,87.00
2017-11-28T01:17:11.701Z,87.14
2017-11-28T01:19:38.249Z,86.66
2017-11-28T01:22:04.785Z,86.89
2017-11-28T01:24:31.325Z,86.69
2017-11-28T01:26:57.879Z,86.82
2017-11-28T01:29:24.388Z,86.70
2017-11-28T01:31:50.823Z,86.98
2017-11-28T01:34:17.972Z,86.94
2017-11-28T01:36:44.408Z,86.89
2017-11-28T01:39:10.945Z,87.27
2017-11-28T01:41:37.395Z,87.01
2017-11-28T01:44:03.921Z,87.04
2017-11-28T01:46:30.317Z,87.01
2017-11-28T01:48:56.773Z,86.75
2017-11-28T01:51:23.937Z,86.26
2017-11-28T01:53:50.371Z,86.41
2017-11-28T01:56:16.912Z,86.24
2017-11-28T01:58:43.446Z,86.34
2017-11-28T02:01:09.882Z,86.38
2017-11-28T02:03:36.278Z,86.67
2017-11-28T02:06:02.740Z,86.40
2017-11-28T02:08:29.903Z,86.31
2017-11-28T02:10:56.429Z,85.89
2017-11-28T02:13:22.874Z,85.74
2017-11-28T02:15:49.316Z,85.69
2017-11-28T02:18:15.958Z,85.45
2017-11-28T02:20:42.451Z,85.49
2017-11-28T02:23:08.924Z,85.76
2017-11-28T02:25:36.082Z,85.63
2017-11-28T02:28:02.504Z,85.50
2017-11-28T02:30:28.957Z,85.21
2017-11-28T02:32:55.372Z,85.28
2017-11-28T02:35:21.807Z,85.13
2017-11-28T02:37:48.242Z,85.26
2017-11-28T02:40:14.787Z,85.00
2017-11-28T02:42:41.835Z,85.45
2017-11-28T02:45:08.229Z,85.65
2017-11-28T02:47:34.707Z,85.57
2017-11-28T02:50:01.132Z,85.54
2017-11-28T02:52:27.565Z,85.54
2017-11-28T02:54:54.009Z,85.53
2017-11-28T02:57:20.547Z,85.57
2017-11-28T02:59:47.645Z,85.32
2017-11-28T03:02:14.080Z,85.87
2017-11-28T03:04:40.549Z,85.35
2017-11-28T03:07:06.918Z,85.52
2017-11-28T03:09:33.325Z,86.03
2017-11-28T03:11:59.760Z,85.97
2017-11-28T03:14:26.195Z,86.05
2017-11-28T03:16:53.457Z,85.89
2017-11-28T03:19:19.887Z,85.99
2017-11-28T03:21:46.318Z,85.97
2017-11-28T03:24:12.840Z,86.08
2017-11-28T03:26:39.303Z,85.67
2017-11-28T03:29:05.937Z,85.92
2017-11-28T03:31:32.362Z,85.87
2017-11-28T03:33:59.524Z,86.01
2017-11-28T03:36:26.061Z,85.56
2017-11-28T03:38:52.597Z,85.22
2017-11-28T03:41:19.024Z,85.33
2017-11-28T03:43:45.462Z,85.24
2017-11-28T03:46:11.899Z,85.23
2017-11-28T03:48:38.330Z,85.14
2017-11-28T03:51:05.480Z,84.81
2017-11-28T03:53:32.025Z,84.98
2017-11-28T03:55:58.452Z,84.72
2017-11-28T03:58:24.979Z,84.82
2017-11-28T04:00:51.422Z,84.75
2017-11-28T04:03:17.860Z,84.72
2017-11-28T04:05:44.246Z,84.66
2017-11-28T04:08:11.554Z,84.62
2017-11-28T04:10:38.089Z,84.80
2017-11-28T04:13:04.472Z,84.62
2017-11-28T04:15:30.960Z,84.97
2017-11-28T04:17:57.385Z,84.71
2017-11-28T04:20:23.911Z,84.90
2017-11-28T04:22:50.472Z,84.96
2017-11-28T04:25:17.601Z,84.78
2017-11-28T04:27:44.045Z,84.66
2017-11-28T04:30:10.482Z,84.72
2017-11-28T04:32:36.910Z,84.66
2017-11-28T04:35:03.355Z,84.68
2017-11-28T04:37:29.783Z,84.53
2017-11-28T04:39:56.191Z,84.52
2017-11-28T04:42:23.370Z,84.41
2017-11-28T04:44:49.804Z,84.37
2017-11-28T04:47:16.328Z,84.46
2017-11-28T04:49:42.775Z,84.51
2017-11-28T04:52:09.210Z,84.73
2017-11-28T04:54:35.762Z,85.25
2017-11-28T04:57:02.182Z,85.11
2017-11-28T04:59:29.435Z,85.50
2017-11-28T05:01:55.869Z,85.39
2017-11-28T05:04:22.259Z,85.36
2017-11-28T05:06:48.850Z,85.79
2017-11-28T05:09:15.275Z,85.93
2017-11-28T05:11:41.700Z,85.83
2017-11-28T05:14:08.145Z,86.33
2017-11-28T05:16:35.194Z,86.08
2017-11-28T05:19:01.740Z,86.48
2017-11-28T05:21:28.259Z,86.37
2017-11-28T05:23:54.703Z,86.59
2017-11-28T05:26:21.157Z,86.77
2017-11-28T05:28:47.673Z,86.65
2017-11-28T05:31:14.200Z,86.88
2017-11-28T05:33:41.269Z,86.63
2017-11-28T05:36:07.694Z,86.58
2017-11-28T05:38:34.128Z,86.75
2017-11-28T05:41:00.531Z,87.16
2017-11-28T05:43:27.006Z,87.06
2017-11-28T05:45:53.433Z,86.98
2017-11-28T05:48:19.867Z,86.53
2017-11-28T05:50:47.230Z,86.74
2017-11-28T05:53:13.666Z,86.75
2017-11-28T05:55:40.100Z,86.81
2017-11-28T05:58:06.528Z,86.55
2017-11-28T06:00:32.962Z,86.63
2017-11-28T06:02:59.815Z,86.31
2017-11-28T06:05:26.449Z,86.28
2017-11-28T06:07:52.993Z,85.75
2017-11-28T06:10:19.527Z,85.17
2017-11-28T06:12:46.167Z,85.65
2017-11-28T06:15:12.593Z,85.54
2017-11-28T06:17:39.169Z,85.12
2017-11-28T06:20:05.920Z,85.02
2017-11-28T06:22:32.409Z,85.09
2017-11-28T06:24:58.844Z,84.56
2017-11-28T06:27:25.375Z,84.53
2017-11-28T06:29:52.750Z,83.88
2017-11-28T06:32:19.384Z,84.32
2017-11-28T06:34:46.115Z,84.01
2017-11-28T06:37:12.654Z,83.94
2017-11-28T06:39:39.191Z,83.38
2017-11-28T06:42:06.036Z,83.59
2017-11-28T06:44:32.474Z,83.75
2017-11-28T06:46:59.022Z,83.67
2017-11-28T06:49:25.793Z,83.47
2017-11-28T06:51:52.592Z,83.38
2017-11-28T06:54:19.242Z,83.19
2017-11-28T06:56:45.772Z,83.15
2017-11-28T06:59:12.609Z,82.93
2017-11-28T07:01:39.608Z,83.54
2017-11-28T07:04:06.209Z,83.28
2017-11-28T07:06:32.942Z,83.41
2017-11-28T07:08:59.376Z,83.12
2017-11-28T07:11:25.940Z,82.85
2017-11-28T07:13:52.457Z,83.07
2017-11-28T07:16:18.996Z,83.46
2017-11-28T07:18:45.630Z,83.14
2017-11-28T07:21:12.061Z,82.93
2017-11-28T07:23:38.512Z,82.80
2017-11-28T07:26:05.555Z,83.23
2017-11-28T07:28:32.081Z,82.61
2017-11-28T07:30:58.627Z,82.27
2017-11-28T07:33:25.615Z,82.24
2017-11-28T07:35:52.103Z,82.44
2017-11-28T07:38:18.640Z,81.85
2017-11-28T07:40:45.177Z,82.15
2017-11-28T07:43:11.610Z,82.07
2017-11-28T07:45:38.103Z,81.39
2017-11-28T07:48:04.893Z,81.06
2017-11-28T07:50:31.428Z,81.71
2017-11-28T07:52:57.918Z,81.40
2017-11-28T07:55:24.658Z,81.13
2017-11-28T07:57:51.198Z,81.74
2017-11-28T08:00:17.672Z,81.58
2017-11-28T08:02:44.523Z,81.01
2017-11-28T08:05:11.597Z,81.17
2017-11-28T08:07:38.734Z,80.81
2017-11-28T08:10:05.582Z,81.22
2017-11-28T08:12:32.156Z,81.63
2017-11-28T08:14:58.872Z,81.19
2017-11-28T08:17:25.984Z,81.23
2017-11-28T08:19:52.646Z,81.64
2017-11-28T08:22:19.276Z,81.36
2017-11-28T08:24:46.247Z,81.27
2017-11-28T08:27:13.181Z,81.34
2017-11-28T08:29:39.808Z,81.03
2017-11-28T08:32:06.878Z,80.96
2017-11-28T08:34:33.634Z,81.17
2017-11-28T08:37:00.441Z,80.60
2017-11-28T08:39:27.414Z,80.86
2017-11-28T08:41:54.027Z,81.38
2017-11-28T08:44:20.805Z,81.09
2017-11-28T08:46:47.945Z,81.37
2017-11-28T08:49:14.765Z,80.75
2017-11-28T08:51:41.598Z,80.43
2017-11-28T08:54:08.418Z,80.76
2017-11-28T08:56:35.107Z,80.32
2017-11-28T08:59:01.887Z,80.39
2017-11-28T09:01:28.954Z,80.68
2017-11-28T09:03:55.753Z,80.30
2017-11-28T09:06:22.573Z,79.79
2017-11-28T09:08:49.620Z,79.95
2017-11-28T09:11:16.261Z,79.38
2017-11-28T09:13:43.089Z,80.12
2017-11-28T09:16:11.102Z,79.57
2017-11-28T09:18:37.719Z,79.53
2017-11-28T09:21:04.262Z,79.47
2017-11-28T09:23:31.002Z,78.79
2017-11-28T09:25:57.542Z,79.36
2017-11-28T09:28:24.092Z,79.28
2017-11-28T09:30:51.023Z,79.28
2017-11-28T09:33:17.540Z,78.98
2017-11-28T09:35:44.090Z,79.72
2017-11-28T09:38:10.940Z,78.88
2017-11-28T09:40:37.583Z,78.76
2017-11-28T09:43:04.074Z,78.42
2017-11-28T09:45:30.962Z,77.69
2017-11-28T09:47:57.490Z,77.70
2017-11-28T09:50:24.000Z,77.95
2017-11-28T09:52:50.768Z,78.27
2017-11-28T09:55:17.261Z,77.55
2017-11-28T09:57:43.836Z,77.82
2017-11-28T10:00:10.584Z,77.76
2017-11-28T10:02:37.128Z,77.33
2017-11-28T10:05:03.692Z,77.50
2017-11-28T10:07:30.604Z,77.75
2017-11-28T10:09:57.143Z,77.44
2017-11-28T10:12:23.745Z,78.26
2017-11-28T10:14:50.586Z,77.17
2017-11-28T10:17:17.060Z,76.69
2017-11-28T10:19:44.092Z,76.49
2017-11-28T10:22:10.953Z,77.10
2017-11-28T10:24:37.489Z,76.85
2017-11-28T10:27:04.027Z,75.50
2017-11-28T10:29:30.973Z,76.15
2017-11-28T10:31:57.468Z,76.11
2017-11-28T10:34:24.515Z,75.86
2017-11-28T10:36:50.994Z,75.81
2017-11-28T10:39:17.438Z,76.23
2017-11-28T10:41:43.862Z,76.02
2017-11-28T10:44:10.429Z,75.75
2017-11-28T10:46:37.460Z,74.86
2017-11-28T10:49:03.975Z,74.71
2017-11-28T10:51:30.419Z,73.88
2017-11-28T10:53:57.197Z,74.64
2017-11-28T10:56:23.707Z,74.68
2017-11-28T10:58:50.548Z,74.70
2017-11-28T11:01:17.900Z,73.70
2017-11-28T11:03:44.647Z,73.49
2017-11-28T11:06:11.184Z,73.95
2017-11-28T11:08:38.029Z,72.98
2017-11-28T11:11:04.670Z,73.75
2017-11-28T11:13:31.264Z,72.92
2017-11-28T11:15:58.246Z,73.29
2017-11-28T11:18:24.884Z,73.92
2017-11-28T11:20:51.640Z,73.22
2017-11-28T11:23:18.889Z,74.18
2017-11-28T11:25:45.534Z,74.96
2017-11-28T11:28:12.480Z,74.36
2017-11-28T11:30:40.480Z,74.66
2017-11-28T11:33:07.194Z,72.60
2017-11-28T11:35:33.710Z,72.61
2017-11-28T11:38:00.364Z,73.69
2017-11-28T11:40:26.956Z,74.42
2017-11-28T11:42:53.642Z,73.13
2017-11-28T11:45:20.239Z,72.71
2017-11-28T11:47:47.228Z,73.81
2017-11-28T11:50:13.764Z,73.68
2017-11-28T11:52:40.250Z,72.49
2017-11-28T11:55:07.137Z,72.79
2017-11-28T11:57:34.085Z,73.08
2017-11-28T12:00:00.777Z,72.36
2017-11-28T12:02:27.689Z,72.33
2017-11-28T12:04:54.310Z,72.24
2017-11-28T12:07:20.842Z,71.36
2017-11-28T12:09:47.746Z,70.65
2017-11-28T12:12:14.330Z,70.05
2017-11-28T12:14:40.868Z,70.78
2017-11-28T12:17:08.129Z,70.29
2017-11-28T12:19:34.760Z,71.26
2017-11-28T12:22:01.501Z,70.40
2017-11-28T12:24:28.352Z,70.14
2017-11-28T12:26:54.884Z,70.98
2017-11-28T12:29:21.795Z,69.81
2017-11-28T12:31:48.785Z,68.75
2017-11-28T12:34:15.313Z,69.87
2017-11-28T12:36:41.953Z,69.04
2017-11-28T12:39:08.801Z,70.02
2017-11-28T12:41:35.443Z,69.81
2017-11-28T12:44:01.973Z,70.98
2017-11-28T12:46:28.716Z,70.67
2017-11-28T12:48:55.371Z,70.62
2017-11-28T12:51:21.891Z,68.61
2017-11-28T12:53:48.755Z,69.60
2017-11-28T12:56:15.274Z,70.23
2017-11-28T12:58:42.261Z,70.81
2017-11-28T13:01:08.985Z,69.84
2017-11-28T13:03:35.559Z,70.61
2017-11-28T13:06:02.486Z,69.81
2017-11-28T13:08:29.291Z,70.50
2017-11-28T13:10:55.853Z,70.77
2017-11-28T13:13:22.778Z,71.14
2017-11-28T13:15:49.309Z,71.10
2017-11-28T13:18:15.846Z,70.81
2017-11-28T13:20:42.997Z,71.30
2017-11-28T13:23:09.510Z,71.63
2017-11-28T13:25:36.182Z,72.01
2017-11-28T13:28:02.977Z,72.20
2017-11-28T13:30:30.805Z,72.30
2017-11-28T13:32:57.605Z,71.91
2017-11-28T13:35:24.861Z,72.31
2017-11-28T13:37:52.261Z,72.45
2017-11-28T13:40:19.913Z,71.77
2017-11-28T13:42:46.848Z,71.55
2017-11-28T13:45:13.765Z,72.18
2017-11-28T13:47:40.545Z,72.32
2017-11-28T13:50:07.492Z,73.33
2017-11-28T13:52:34.438Z,72.77
2017-11-28T13:55:02.103Z,72.89
2017-11-28T13:57:28.827Z,72.59
2017-11-28T13:59:55.892Z,72.02
2017-11-28T14:02:22.737Z,72.71
2017-11-28T14:04:49.488Z,73.45
2017-11-28T14:07:16.451Z,72.94
2017-11-28T14:09:43.391Z,72.70
2017-11-28T14:12:09.900Z,73.49
2017-11-28T14:14:36.641Z,73.35
2017-11-28T14:17:03.549Z,73.10
2017-11-28T14:19:30.271Z,73.45
2017-11-28T14:21:57.196Z,73.42
2017-11-28T14:24:23.926Z,72.33
2017-11-28T14:26:50.461Z,73.23
2017-11-28T14:29:16.991Z,73.47
2017-11-28T14:31:43.938Z,73.50
2017-11-28T14:34:10.482Z,73.45
2017-11-28T14:36:37.428Z,73.80
2017-11-28T14:39:03.928Z,73.70
2017-11-28T14:41:30.950Z,73.45
2017-11-28T14:43:57.858Z,73.09
2017-11-28T14:46:24.390Z,73.23
2017-11-28T14:48:50.924Z,73.60
2017-11-28T14:51:18.838Z,73.54
2017-11-28T14:53:45.533Z,73.61
2017-11-28T14:56:12.071Z,73.68
2017-11-28T14:58:39.129Z,73.87
2017-11-28T15:01:05.870Z,73.41
2017-11-28T15:03:32.603Z,73.54
2017-11-28T15:06:00.214Z,74.01
2017-11-28T15:08:27.215Z,73.54
2017-11-28T15:10:53.853Z,73.09
2017-11-28T15:13:20.596Z,74.02
2017-11-28T15:15:47.140Z,73.20
2017-11-28T15:18:13.677Z,73.83
2017-11-28T15:20:40.574Z,73.92
2017-11-28T15:23:07.005Z,73.55
2017-11-28T15:25:33.485Z,74.24
2017-11-28T15:28:00.442Z,74.45
2017-11-28T15:30:26.922Z,74.11
2017-11-28T15:32:53.411Z,74.27
2017-11-28T15:35:20.353Z,74.47
2017-11-28T15:37:46.909Z,74.47
2017-11-28T15:40:13.639Z,74.65
2017-11-28T15:42:40.253Z,74.78
2017-11-28T15:45:06.915Z,74.15
2017-11-28T15:47:33.750Z,74.52
2017-11-28T15:50:00.393Z,74.23
2017-11-28T15:52:27.593Z,74.41
2017-11-28T15:54:54.292Z,74.12
2017-11-28T15:57:20.829Z,74.45
2017-11-28T15:59:47.412Z,74.23
2017-11-28T16:02:14.313Z,74.39
2017-11-28T16:04:40.852Z,74.12
2017-11-28T16:07:07.388Z,74.48
2017-11-28T16:09:34.344Z,74.57
2017-11-28T16:12:00.759Z,74.77
2017-11-28T16:14:27.296Z,74.66
2017-11-28T16:16:53.740Z,74.54
2017-11-28T16:19:20.185Z,74.44
2017-11-28T16:21:46.554Z,74.43
2017-11-28T16:24:12.932Z,74.75
2017-11-28T16:26:39.365Z,74.34
2017-11-28T16:29:05.913Z,74.37
2017-11-28T16:31:32.339Z,74.31
2017-11-28T16:33:58.793Z,74.73
2017-11-28T16:36:25.299Z,74.43
2017-11-28T16:38:51.754Z,74.58
2017-11-28T16:41:18.181Z,74.12
2017-11-28T16:43:44.613Z,74.42
2017-11-28T16:46:11.159Z,74.10
2017-11-28T16:48:37.689Z,74.35
2017-11-28T16:51:04.078Z,74.46
2017-11-28T16:53:30.556Z,74.72
2017-11-28T16:55:56.998Z,74.77
2017-11-28T16:58:23.426Z,74.89
2017-11-28T17:00:49.883Z,74.42
2017-11-28T17:03:16.396Z,74.67
2017-11-28T17:05:42.943Z,74.45
2017-11-28T17:08:09.368Z,74.58
2017-11-28T17:10:35.913Z,74.55
2017-11-28T17:13:03.065Z,74.72
2017-11-28T17:15:29.478Z,74.69
2017-11-28T17:17:55.889Z,74.31
2017-11-28T17:20:22.359Z,74.48
2017-11-28T17:22:48.794Z,74.69
2017-11-28T17:25:15.243Z,74.77
2017-11-28T17:27:41.631Z,74.70
2017-11-28T17:30:08.817Z,74.39
2017-11-28T17:32:35.353Z,74.54
2017-11-28T17:35:01.787Z,74.50
2017-11-28T17:37:28.230Z,74.52
2017-11-28T17:39:54.657Z,74.52
2017-11-28T17:42:21.091Z,74.51
2017-11-28T17:44:47.526Z,74.71
2017-11-28T17:47:14.674Z,75.11
2017-11-28T17:49:41.113Z,75.36
2017-11-28T17:52:07.556Z,75.22
2017-11-28T17:54:33.981Z,75.04
2017-11-28T17:57:00.420Z,75.36
2017-11-28T17:59:26.960Z,75.44
2017-11-28T18:01:53.501Z,75.67
2017-11-28T18:04:20.652Z,75.79
2017-11-28T18:06:47.309Z,75.98
2017-11-28T18:09:13.828Z,75.82
2017-11-28T18:11:40.364Z,75.60
2017-11-28T18:14:06.902Z,75.28
2017-11-28T18:16:33.426Z,75.31
2017-11-28T18:18:59.867Z,75.67
2017-11-28T18:21:27.329Z,76.21
2017-11-28T18:23:53.860Z,76.26
2017-11-28T18:26:20.288Z,76.47
2017-11-28T18:28:46.745Z,76.47
2017-11-28T18:31:13.298Z,75.83
2017-11-28T18:33:39.801Z,75.40
2017-11-28T18:36:06.194Z,75.80
2017-11-28T18:38:33.566Z,75.42
2017-11-28T18:41:00.135Z,75.31
2017-11-28T18:43:26.519Z,74.55
2017-11-28T18:45:52.894Z,74.66
2017-11-28T18:48:19.441Z,74.32
2017-11-28T18:50:45.977Z,74.18
2017-11-28T18:53:12.403Z,74.50
2017-11-28T18:55:39.657Z,73.73
2017-11-28T18:58:06.244Z,73.47
2017-11-28T19:00:32.630Z,73.62
2017-11-28T19:02:59.087Z,74.07
2017-11-28T19:05:25.601Z,74.39
2017-11-28T19:07:52.146Z,74.25
2017-11-28T19:10:18.573Z,74.06
2017-11-28T19:12:45.825Z,74.38
2017-11-28T19:15:12.215Z,74.32
2017-11-28T19:17:38.680Z,74.37
2017-11-28T19:20:05.135Z,74.50
2017-11-28T19:22:31.677Z,73.87
2017-11-28T19:24:58.059Z,74.03
2017-11-28T19:27:24.528Z,74.03
2017-11-28T19:29:51.688Z,74.56
2017-11-28T19:32:18.221Z,74.56
2017-11-28T19:34:44.615Z,74.35
2017-11-28T19:37:11.217Z,74.07
2017-11-28T19:39:37.732Z,74.08
2017-11-28T19:42:04.123Z,74.16
2017-11-28T19:44:30.559Z,74.31
2017-11-28T19:46:57.762Z,74.50
2017-11-28T19:49:24.151Z,74.81
2017-11-28T19:51:50.616Z,75.15
2017-11-28T19:54:17.057Z,75.63
2017-11-28T19:56:43.704Z,75.50
2017-11-28T19:59:10.129Z,75.68
2017-11-28T20:01:36.675Z,75.71
2017-11-28T20:04:03.102Z,75.60
2017-11-28T20:06:29.536Z,75.17
2017-11-28T20:08:56.080Z,75.17
2017-11-28T20:11:22.508Z,75.22
2017-11-28T20:13:48.942Z,74.87
2017-11-28T20:16:15.377Z,74.75
2017-11-28T20:18:41.811Z,74.73
2017-11-28T20:21:08.207Z,74.86
2017-11-28T20:23:34.667Z,75.17
2017-11-28T20:26:01.132Z,75.64
2017-11-28T20:28:27.666Z,75.42
2017-11-28T20:30:54.193Z,75.62
2017-11-28T20:33:20.584Z,75.77
2017-11-28T20:35:47.067Z,76.07
2017-11-28T20:38:13.610Z,76.31
2017-11-28T20:40:40.123Z,76.17
2017-11-28T20:43:06.673Z,76.19
2017-11-28T20:45:33.719Z,76.33
2017-11-28T20:48:00.264Z,76.75
2017-11-28T20:50:26.721Z,76.92
2017-11-28T20:52:53.242Z,76.70
2017-11-28T20:55:19.757Z,76.37
2017-11-28T20:57:46.155Z,75.93
2017-11-28T21:00:12.641Z,75.66
2017-11-28T21:02:39.784Z,75.83
2017-11-28T21:05:06.208Z,75.71
2017-11-28T21:07:32.666Z,75.92
2017-11-28T21:09:59.189Z,76.11
2017-11-28T21:12:25.623Z,76.03
2017-11-28T21:14:52.068Z,76.04
2017-11-28T21:17:18.462Z,76.41
2017-11-28T21:19:45.755Z,76.13
2017-11-28T21:22:12.183Z,76.17
2017-11-28T21:24:38.619Z,76.52
2017-11-28T21:27:05.011Z,76.94
2017-11-28T21:29:31.497Z,76.88
2017-11-28T21:31:57.873Z,76.92
2017-11-28T21:34:24.451Z,76.85
2017-11-28T21:36:51.403Z,76.78
2017-11-28T21:39:17.838Z,76.91
2017-11-28T21:41:44.273Z,77.17
2017-11-28T21:44:10.706Z,77.23
2017-11-28T21:46:37.140Z,77.47
2017-11-28T21:49:03.595Z,77.91
2017-11-28T21:51:30.017Z,77.82
2017-11-28T21:53:57.277Z,77.68
2017-11-28T21:56:23.699Z,77.78
2017-11-28T21:58:50.135Z,77.88
2017-11-28T22:01:16.569Z,77.95
2017-11-28T22:03:43.114Z,77.87
2017-11-28T22:06:09.651Z,77.84
2017-11-28T22:08:36.188Z,78.13
2017-11-28T22:11:03.344Z,78.60
2017-11-28T22:13:29.770Z,78.88
2017-11-28T22:15:56.310Z,78.36
2017-11-28T22:18:22.846Z,78.47
2017-11-28T22:20:49.296Z,78.75
2017-11-28T22:23:15.812Z,78.62
2017-11-28T22:25:42.365Z,78.63
2017-11-28T22:28:09.490Z,78.81
2017-11-28T22:30:35.941Z,79.11
2017-11-28T22:33:02.368Z,79.82
2017-11-28T22:35:28.763Z,79.85
2017-11-28T22:37:55.236Z,80.19
2017-11-28T22:40:21.803Z,80.63
2017-11-28T22:42:48.288Z,81.00
2017-11-28T22:45:15.483Z,81.22
2017-11-28T22:47:42.007Z,81.46
2017-11-28T22:50:08.435Z,81.75
2017-11-28T22:52:35.384Z,81.98
2017-11-28T22:55:01.926Z,82.38
2017-11-28T22:57:28.352Z,82.86
2017-11-28T22:59:54.748Z,83.53
2017-11-28T23:02:22.040Z,83.80
2017-11-28T23:04:48.480Z,83.93
2017-11-28T23:07:15.022Z,83.88
2017-11-28T23:09:41.557Z,83.87
2017-11-28T23:12:08.134Z,83.70
2017-11-28T23:14:34.609Z,83.90
2017-11-28T23:17:01.172Z,83.81
2017-11-28T23:19:28.270Z,83.56
2017-11-28T23:21:54.756Z,83.56
2017-11-28T23:24:21.292Z,83.91
2017-11-28T23:26:47.834Z,84.32
2017-11-28T23:29:14.255Z,84.62
2017-11-28T23:31:40.654Z,84.47
2017-11-28T23:34:07.124Z,84.58
2017-11-28T23:36:34.285Z,84.53
2017-11-28T23:39:00.803Z,84.59
2017-11-28T23:41:27.255Z,84.52
2017-11-28T23:43:53.690Z,84.60
2017-11-28T23:46:20.211Z,84.68
2017-11-28T23:48:46.763Z,84.74
2017-11-28T23:51:13.287Z,84.71
2017-11-28T23:53:40.299Z,84.63
2017-11-28T23:56:06.784Z,84.68
2017-11-28T23:58:33.324Z,84.84
